TW-0006 weather

Hualien Air Base
Hualien City, Hualien County, Taiwan

Public forecast

Using degrees Celsius for public forecast. Weather courtesy of forecast.io.

METAR (pilot weather report)

Closest report is Taichung Ching Chuang Kang Airport, 55.0 nm (101.8 km) WNW. Retrieved 2019/07/17 19:00 UTC (48 minutes ago):

RCMQ 171900Z 03006KT 9999 FEW010 BKN060 27/24 Q0996 RMK A2942

TAF (pilot weather forecast)

Closest forecast is Taichung Ching Chuang Kang Airport, 55.0 nm (101.8 km) WNW. Retrieved 2019/07/17 18:21 UTC (1 hour ago):

TAF RCMQ 171700Z 1718/1818 03004KT 9999 FEW010 BKN200 TX33/1806Z TN26/1721Z BECMG 1722/1802 02010KT TEMPO 1803/1808 02015KT 8000 RA FEW010 BKN050 BECMG 1809/1812 7000 RA FEW010 BKN020